Chatfield, Arkansas
Current Conditions -  °F | °C
As of 3:53 PM on Friday 24 Oct 2014 (Local Time) from KAWM Reporting Station
Clear Clear  
Wind Chill: 75°   Ceiling: Unl
Heat Index: 75°   Visibility: 10mi
Dew Point: 56°   Wind: 6mph
Humidity: 51%   Direction: 310°NW
Pressure: 30.06"   Gusts: NA
Location:  35.0058°N, 90.3972°W
Report Text: KAWM 242053Z AUTO 31005KT 10SM CLR 24/13 A3006 RMK AO2 SLP177 T02390133 56019
Loading
Personal Weather Stations






























Interactive Weather Map
Tropical Storm Tracking
New forecast layout! Learn more

10-Day Weather Forecast

Advertisements
Track Severe Weather on mobile